ケアンズ の空港の天気 - METARとTAF

ケアンズ国際空港 ( YBCS / CNS ) - オーストラリア クイーンズランド州ケアンズ
飛行場実況気象(Metar)
観測時間02/21 01:00 AEST (02/20 15:00 UTC)
風向・風速西南西 1m/s
視程10km以上
天気現象
なし
気温27℃
湿度79%
気圧1010hPa
METARYBCS 201500Z 25002KT CAVOK 27/23 Q1010
過去の天気等 Google飛行場航空写真 Wunderground天気予報

過去48時間のMETAR

飛行場予報(TAF)
発表時間: 2/20 21:45 AEST (2/20 11:45 UTC)
予報対象時間: 20日22時 AEST ~ 21日22時 AEST
風向・風速不定 2m/s
視程10km以上
少しの雲 雲底高度 700m
全天の8割程度の雲 雲底高度 1,220m
21日10時 AEST から
風向・風速北東 5m/s
視程10km以上
全天の4割程度の雲 雲底高度 760m
全天の8割程度の雲 雲底高度 1,520m
21日18時 AEST から
風向・風速不定 2m/s
視程10km以上
少しの雲 雲底高度 700m
全天の4割程度の雲 雲底高度 1,220m
TAF AMD YBCS 201145Z 2012/2112 VRB03KT 9999 FEW023 BKN040
FM210000 04010KT 9999 SCT025 BKN050
FM210800 VRB03KT 9999 FEW023 SCT040 INTER 2101/2108 5000 SHRA BKN015